createdAt,value
2017-09-07T00:00:16.794Z,0
2017-09-07T00:00:57.391Z,0
2017-09-07T00:01:37.990Z,0
2017-09-07T00:02:18.582Z,0
2017-09-07T00:02:59.153Z,0
2017-09-07T00:03:39.761Z,0
2017-09-07T00:04:20.376Z,0
2017-09-07T00:05:00.946Z,0
2017-09-07T00:05:41.563Z,0
2017-09-07T00:06:22.169Z,0
2017-09-07T00:07:02.763Z,0
2017-09-07T00:07:43.346Z,0
2017-09-07T00:08:23.917Z,0
2017-09-07T00:09:04.512Z,0
2017-09-07T00:09:45.133Z,0
2017-09-07T00:10:25.745Z,0
2017-09-07T00:11:06.336Z,0
2017-09-07T00:11:46.946Z,0
2017-09-07T00:12:27.553Z,0
2017-09-07T00:13:08.128Z,0
2017-09-07T00:13:48.755Z,0
2017-09-07T00:14:29.362Z,0
2017-09-07T00:15:09.945Z,0
2017-09-07T00:15:50.555Z,0
2017-09-07T00:16:31.164Z,0
2017-09-07T00:17:11.740Z,0
2017-09-07T00:17:52.326Z,0
2017-09-07T00:18:32.894Z,0
2017-09-07T00:19:13.469Z,0
2017-09-07T00:19:54.078Z,0
2017-09-07T00:20:34.662Z,0
2017-09-07T00:21:15.251Z,0
2017-09-07T00:21:55.861Z,0
2017-09-07T00:22:36.431Z,0
2017-09-07T00:23:17.004Z,0
2017-09-07T00:23:57.615Z,0
2017-09-07T00:24:38.181Z,0
2017-09-07T00:25:18.744Z,0
2017-09-07T00:25:59.352Z,0
2017-09-07T00:26:39.919Z,0
2017-09-07T00:27:20.507Z,0
2017-09-07T00:28:01.097Z,0
2017-09-07T00:28:41.715Z,0
2017-09-07T00:29:22.304Z,0
2017-09-07T00:30:02.876Z,0
2017-09-07T00:30:43.445Z,0
2017-09-07T00:31:24.006Z,0
2017-09-07T00:32:04.618Z,0
2017-09-07T00:32:45.217Z,0
2017-09-07T00:33:25.805Z,0
2017-09-07T00:34:06.401Z,0
2017-09-07T00:34:47.000Z,0
2017-09-07T00:35:27.596Z,0
2017-09-07T00:36:08.176Z,0
2017-09-07T00:36:48.757Z,0
2017-09-07T00:37:29.361Z,0
2017-09-07T00:38:09.945Z,0
2017-09-07T00:38:50.504Z,0
2017-09-07T00:39:31.063Z,0
2017-09-07T00:40:11.720Z,0
2017-09-07T00:40:52.292Z,0
2017-09-07T00:41:32.873Z,0
2017-09-07T00:42:13.456Z,0
2017-09-07T00:42:54.047Z,0
2017-09-07T00:43:34.643Z,0
2017-09-07T00:44:15.211Z,0
2017-09-07T00:44:55.794Z,0
2017-09-07T00:45:36.398Z,0
2017-09-07T00:46:17.006Z,0
2017-09-07T00:46:57.598Z,0
2017-09-07T00:47:38.183Z,0
2017-09-07T00:48:18.779Z,0
2017-09-07T00:48:59.358Z,0
2017-09-07T00:49:39.959Z,0
2017-09-07T00:50:20.572Z,0
2017-09-07T00:51:01.142Z,0
2017-09-07T00:51:41.723Z,0
2017-09-07T00:52:22.293Z,0
2017-09-07T00:53:02.855Z,0
2017-09-07T00:53:43.462Z,0
2017-09-07T00:54:24.039Z,0
2017-09-07T00:55:04.652Z,0
2017-09-07T00:55:45.237Z,0
2017-09-07T00:56:25.819Z,0
2017-09-07T00:57:06.430Z,0
2017-09-07T00:57:47.011Z,0
2017-09-07T00:58:27.627Z,0
2017-09-07T00:59:08.189Z,0
2017-09-07T00:59:48.768Z,0
2017-09-07T01:00:29.371Z,0
2017-09-07T01:01:09.956Z,0
2017-09-07T01:01:50.558Z,0
2017-09-07T01:02:31.203Z,0
2017-09-07T01:03:11.786Z,0
2017-09-07T01:03:52.388Z,0
2017-09-07T01:04:32.984Z,0
2017-09-07T01:05:13.578Z,0
2017-09-07T01:05:54.181Z,0
2017-09-07T01:06:34.770Z,0
2017-09-07T01:07:15.339Z,0
2017-09-07T01:07:55.929Z,0
2017-09-07T01:08:36.520Z,0
2017-09-07T01:09:17.084Z,0
2017-09-07T01:09:57.699Z,0
2017-09-07T01:10:38.330Z,0
2017-09-07T01:11:18.894Z,0
2017-09-07T01:11:59.470Z,0
2017-09-07T01:12:40.027Z,0
2017-09-07T01:13:20.590Z,0
2017-09-07T01:14:01.152Z,0
2017-09-07T01:14:41.741Z,0
2017-09-07T01:15:22.347Z,0
2017-09-07T01:16:02.941Z,0
2017-09-07T01:16:43.519Z,0
2017-09-07T01:17:24.103Z,0
2017-09-07T01:18:04.716Z,0
2017-09-07T01:18:45.286Z,0
2017-09-07T01:19:25.914Z,0
2017-09-07T01:20:06.499Z,0
2017-09-07T01:20:47.094Z,0
2017-09-07T01:21:27.673Z,0
2017-09-07T01:22:08.249Z,0
2017-09-07T01:22:48.826Z,0
2017-09-07T01:23:29.399Z,0
2017-09-07T01:24:09.953Z,0
2017-09-07T01:24:50.533Z,0
2017-09-07T01:25:31.129Z,0
2017-09-07T01:26:11.691Z,0
2017-09-07T01:26:52.254Z,0
2017-09-07T01:27:32.835Z,0
2017-09-07T01:28:13.404Z,0
2017-09-07T01:28:53.980Z,0
2017-09-07T01:29:34.569Z,0
2017-09-07T01:30:15.141Z,0
2017-09-07T01:30:55.706Z,0
2017-09-07T01:31:36.284Z,0
2017-09-07T01:32:16.874Z,0
2017-09-07T01:32:57.426Z,0
2017-09-07T01:33:38.034Z,0
2017-09-07T01:34:18.620Z,0
2017-09-07T01:34:59.189Z,0
2017-09-07T01:35:39.779Z,0
2017-09-07T01:36:20.391Z,0
2017-09-07T01:37:00.989Z,0
2017-09-07T01:37:41.559Z,0
2017-09-07T01:38:22.136Z,0
2017-09-07T01:39:02.704Z,0
2017-09-07T01:39:43.318Z,0
2017-09-07T01:40:23.885Z,0
2017-09-07T01:41:04.438Z,0
2017-09-07T01:41:45.008Z,0
2017-09-07T01:42:25.621Z,0
2017-09-07T01:43:06.197Z,0
2017-09-07T01:43:46.763Z,0
2017-09-07T01:44:27.357Z,0
2017-09-07T01:45:07.963Z,0
2017-09-07T01:45:48.551Z,0
2017-09-07T01:46:29.149Z,0
2017-09-07T01:47:09.717Z,0
2017-09-07T01:47:50.284Z,0
2017-09-07T01:48:30.862Z,0
2017-09-07T01:49:11.443Z,0
2017-09-07T01:49:52.024Z,0
2017-09-07T01:50:32.610Z,0
2017-09-07T01:51:13.176Z,0
2017-09-07T01:51:53.757Z,0
2017-09-07T01:52:34.330Z,0
2017-09-07T01:53:14.884Z,0
2017-09-07T01:53:55.452Z,0
2017-09-07T01:54:36.057Z,0
2017-09-07T01:55:16.607Z,0
2017-09-07T01:55:57.175Z,0
2017-09-07T01:56:37.762Z,0
2017-09-07T01:57:18.330Z,0
2017-09-07T01:57:58.891Z,0
2017-09-07T01:58:39.474Z,0
2017-09-07T01:59:20.062Z,0
2017-09-07T02:00:00.637Z,0
2017-09-07T02:00:41.198Z,0
2017-09-07T02:01:21.753Z,0
2017-09-07T02:02:02.322Z,0
2017-09-07T02:02:42.922Z,0
2017-09-07T02:03:23.521Z,0
2017-09-07T02:04:04.081Z,0
2017-09-07T02:04:44.663Z,0
2017-09-07T02:05:25.222Z,0
2017-09-07T02:06:05.787Z,0
2017-09-07T02:06:46.401Z,0
2017-09-07T02:07:26.986Z,0
2017-09-07T02:08:07.547Z,0
2017-09-07T02:08:48.142Z,0
2017-09-07T02:09:28.719Z,0
2017-09-07T02:10:09.280Z,0
2017-09-07T02:10:49.849Z,0
2017-09-07T02:11:30.437Z,0
2017-09-07T02:12:10.997Z,0
2017-09-07T02:12:51.630Z,0
2017-09-07T02:13:32.284Z,0
2017-09-07T02:14:12.857Z,0
2017-09-07T02:14:53.416Z,0
2017-09-07T02:15:34.015Z,0
2017-09-07T02:16:14.588Z,0
2017-09-07T02:16:55.153Z,0
2017-09-07T02:17:35.725Z,0
2017-09-07T02:18:16.299Z,0
2017-09-07T02:18:56.880Z,0
2017-09-07T02:19:37.454Z,0
2017-09-07T02:20:18.054Z,0
2017-09-07T02:20:58.606Z,0
2017-09-07T02:21:39.164Z,0
2017-09-07T02:22:19.761Z,0
2017-09-07T02:23:00.730Z,0
2017-09-07T02:23:42.051Z,0
2017-09-07T02:24:22.640Z,0
2017-09-07T02:25:03.214Z,0
2017-09-07T02:25:43.801Z,0
2017-09-07T02:26:24.399Z,0
2017-09-07T02:27:04.963Z,0
2017-09-07T02:27:45.543Z,0
2017-09-07T02:28:26.112Z,0
2017-09-07T02:29:06.685Z,0
2017-09-07T02:29:47.255Z,0
2017-09-07T02:30:27.898Z,0
2017-09-07T02:31:08.460Z,0
2017-09-07T02:31:49.018Z,0
2017-09-07T02:32:29.603Z,0
2017-09-07T02:33:10.169Z,0
2017-09-07T02:33:50.744Z,0
2017-09-07T02:34:31.340Z,0
2017-09-07T02:35:11.906Z,0
2017-09-07T02:35:52.504Z,0
2017-09-07T02:36:33.061Z,0
2017-09-07T02:37:13.635Z,0
2017-09-07T02:37:54.206Z,0
2017-09-07T02:38:34.782Z,0
2017-09-07T02:39:15.358Z,0
2017-09-07T02:39:55.920Z,0
2017-09-07T02:40:36.488Z,0
2017-09-07T02:41:17.071Z,0
2017-09-07T02:41:57.649Z,0
2017-09-07T02:42:38.224Z,0
2017-09-07T02:43:18.774Z,0
2017-09-07T02:43:59.346Z,0
2017-09-07T02:44:39.913Z,0
2017-09-07T02:45:20.482Z,0
2017-09-07T02:46:01.086Z,0
2017-09-07T02:46:41.706Z,0
2017-09-07T02:47:22.340Z,0
2017-09-07T02:48:02.911Z,0
2017-09-07T02:48:43.478Z,0
2017-09-07T02:49:24.032Z,0
2017-09-07T02:50:04.621Z,0
2017-09-07T02:50:45.188Z,0
2017-09-07T02:51:25.766Z,0
2017-09-07T02:52:06.339Z,0
2017-09-07T02:52:46.922Z,0
2017-09-07T02:53:27.492Z,0
2017-09-07T02:54:08.116Z,0
2017-09-07T02:54:48.743Z,0
2017-09-07T02:55:29.315Z,0
2017-09-07T02:56:09.871Z,0
2017-09-07T02:56:50.436Z,0
2017-09-07T02:57:31.008Z,0
2017-09-07T02:58:11.582Z,0
2017-09-07T02:58:52.163Z,0
2017-09-07T02:59:32.725Z,0
2017-09-07T03:00:13.312Z,0
2017-09-07T03:00:53.882Z,0
2017-09-07T03:01:34.459Z,0
2017-09-07T03:02:15.030Z,0
2017-09-07T03:02:55.592Z,0
2017-09-07T03:03:36.175Z,0
2017-09-07T03:04:16.739Z,0
2017-09-07T03:04:57.309Z,0
2017-09-07T03:05:37.881Z,0
2017-09-07T03:06:18.433Z,0
2017-09-07T03:06:59.004Z,0
2017-09-07T03:07:39.570Z,0
2017-09-07T03:08:20.164Z,0
2017-09-07T03:09:00.735Z,0
2017-09-07T03:09:41.301Z,0
2017-09-07T03:10:21.873Z,0
2017-09-07T03:11:02.456Z,0
2017-09-07T03:11:43.018Z,0
2017-09-07T03:12:23.591Z,0
2017-09-07T03:13:04.162Z,0
2017-09-07T03:13:44.729Z,0
2017-09-07T03:14:25.308Z,0
2017-09-07T03:15:05.895Z,0
2017-09-07T03:15:46.467Z,0
2017-09-07T03:16:27.035Z,0
2017-09-07T03:17:07.601Z,0
2017-09-07T03:17:48.167Z,0
2017-09-07T03:18:28.735Z,0
2017-09-07T03:19:09.319Z,0
2017-09-07T03:19:49.885Z,0
2017-09-07T03:20:30.462Z,0
2017-09-07T03:21:11.035Z,0
2017-09-07T03:21:51.588Z,0
2017-09-07T03:22:32.203Z,0
2017-09-07T03:23:12.766Z,0
2017-09-07T03:23:53.359Z,0
2017-09-07T03:24:34.005Z,0
2017-09-07T03:25:14.619Z,0
2017-09-07T03:25:55.189Z,0
2017-09-07T03:26:35.789Z,0
2017-09-07T03:27:16.356Z,0
2017-09-07T03:27:56.956Z,0
2017-09-07T03:28:37.523Z,0
2017-09-07T03:29:18.095Z,0
2017-09-07T03:29:58.680Z,0
2017-09-07T03:30:39.237Z,0
2017-09-07T03:31:19.804Z,0
2017-09-07T03:32:00.368Z,0
2017-09-07T03:32:40.948Z,0
2017-09-07T03:33:21.525Z,0
2017-09-07T03:34:02.087Z,0
2017-09-07T03:34:42.647Z,0
2017-09-07T03:35:23.215Z,0
2017-09-07T03:36:03.811Z,0
2017-09-07T03:36:44.386Z,0
2017-09-07T03:37:24.947Z,0
2017-09-07T03:38:05.510Z,0
2017-09-07T03:38:46.084Z,0
2017-09-07T03:39:26.662Z,0
2017-09-07T03:40:07.249Z,0
2017-09-07T03:40:47.830Z,0
2017-09-07T03:41:28.394Z,0
2017-09-07T03:42:08.996Z,0
2017-09-07T03:42:49.545Z,0
2017-09-07T03:43:30.111Z,0
2017-09-07T03:44:10.711Z,0
2017-09-07T03:44:51.280Z,0
2017-09-07T03:45:31.945Z,0
2017-09-07T03:46:12.568Z,0
2017-09-07T03:46:53.132Z,0
2017-09-07T03:47:33.718Z,0
2017-09-07T03:48:14.305Z,0
2017-09-07T03:48:54.868Z,0
2017-09-07T03:49:35.433Z,0
2017-09-07T03:50:16.047Z,0
2017-09-07T03:50:56.618Z,0
2017-09-07T03:51:37.184Z,0
2017-09-07T03:52:17.769Z,0
2017-09-07T03:52:58.335Z,0
2017-09-07T03:53:38.917Z,0
2017-09-07T03:54:19.498Z,0
2017-09-07T03:55:00.071Z,0
2017-09-07T03:55:40.645Z,0
2017-09-07T03:56:21.221Z,0
2017-09-07T03:57:01.805Z,0
2017-09-07T03:57:42.369Z,0
2017-09-07T03:58:22.930Z,0
2017-09-07T03:59:03.497Z,0
2017-09-07T03:59:44.057Z,0
2017-09-07T04:00:24.647Z,0
2017-09-07T04:01:05.216Z,0
2017-09-07T04:01:45.786Z,0
2017-09-07T04:02:26.345Z,0
2017-09-07T04:03:06.904Z,0
2017-09-07T04:03:47.484Z,0
2017-09-07T04:04:28.072Z,0
2017-09-07T04:05:08.651Z,0
2017-09-07T04:05:49.212Z,0
2017-09-07T04:06:29.772Z,0
2017-09-07T04:07:10.334Z,0
2017-09-07T04:07:50.924Z,0
2017-09-07T04:08:31.491Z,0
2017-09-07T04:09:12.060Z,0
2017-09-07T04:09:52.615Z,0
2017-09-07T04:10:33.201Z,0
2017-09-07T04:11:13.798Z,0
2017-09-07T04:11:54.364Z,0
2017-09-07T04:12:34.940Z,0
2017-09-07T04:13:15.524Z,0
2017-09-07T04:13:56.100Z,0
2017-09-07T04:14:36.652Z,0
2017-09-07T04:15:17.260Z,0
2017-09-07T04:15:57.826Z,0
2017-09-07T04:16:38.398Z,0
2017-09-07T04:17:18.959Z,0
2017-09-07T04:17:59.555Z,0
2017-09-07T04:18:40.146Z,0
2017-09-07T04:19:20.711Z,0
2017-09-07T04:20:01.300Z,0
2017-09-07T04:20:41.864Z,0
2017-09-07T04:21:22.432Z,0
2017-09-07T04:22:02.998Z,0
2017-09-07T04:22:43.573Z,0
2017-09-07T04:23:24.152Z,0
2017-09-07T04:24:04.724Z,0
2017-09-07T04:24:45.288Z,0
2017-09-07T04:25:25.860Z,0
2017-09-07T04:26:06.426Z,0
2017-09-07T04:26:46.986Z,0
2017-09-07T04:27:27.565Z,0
2017-09-07T04:28:08.133Z,0
2017-09-07T04:28:48.758Z,0
2017-09-07T04:29:29.339Z,0
2017-09-07T04:30:09.905Z,0
2017-09-07T04:30:50.482Z,0
2017-09-07T04:31:31.054Z,5
2017-09-07T04:32:11.628Z,5
2017-09-07T04:32:52.198Z,0
2017-09-07T04:33:32.865Z,0
2017-09-07T04:34:13.497Z,0
2017-09-07T04:34:54.046Z,5
2017-09-07T04:35:34.606Z,5
2017-09-07T04:36:15.163Z,5
2017-09-07T04:36:55.736Z,5
2017-09-07T04:37:36.345Z,5
2017-09-07T04:38:16.937Z,5
2017-09-07T04:38:57.533Z,5
2017-09-07T04:39:38.118Z,5
2017-09-07T04:40:18.702Z,5
2017-09-07T04:40:59.995Z,10
2017-09-07T04:41:40.584Z,10
2017-09-07T04:42:21.153Z,10
2017-09-07T04:43:01.715Z,10
2017-09-07T04:43:42.274Z,10
2017-09-07T04:44:22.828Z,10
2017-09-07T04:45:03.386Z,10
2017-09-07T04:45:43.948Z,10
2017-09-07T04:46:24.521Z,10
2017-09-07T04:47:05.092Z,10
2017-09-07T04:47:45.661Z,15
2017-09-07T04:48:26.243Z,15
2017-09-07T04:49:06.810Z,15
2017-09-07T04:49:47.373Z,15
2017-09-07T04:50:27.948Z,15
2017-09-07T04:51:08.502Z,15
2017-09-07T04:51:49.066Z,15
2017-09-07T04:52:29.655Z,20
2017-09-07T04:53:10.233Z,20
2017-09-07T04:53:50.804Z,20
2017-09-07T04:54:31.374Z,25
2017-09-07T04:55:11.930Z,20
2017-09-07T04:55:52.509Z,20
2017-09-07T04:56:33.094Z,20
2017-09-07T04:57:13.655Z,15
2017-09-07T04:57:54.221Z,15
2017-09-07T04:58:34.813Z,15
2017-09-07T04:59:15.374Z,15
2017-09-07T04:59:55.938Z,10
2017-09-07T05:00:36.536Z,10
2017-09-07T05:01:17.115Z,10
2017-09-07T05:01:57.688Z,10
2017-09-07T05:02:38.282Z,10
2017-09-07T05:03:18.891Z,10
2017-09-07T05:03:59.474Z,10
2017-09-07T05:04:40.051Z,10
2017-09-07T05:05:20.629Z,10
2017-09-07T05:06:01.205Z,10
2017-09-07T05:06:41.789Z,10
2017-09-07T05:07:22.399Z,10
2017-09-07T05:08:02.963Z,10
2017-09-07T05:08:43.546Z,15
2017-09-07T05:09:24.114Z,20
2017-09-07T05:10:04.684Z,20
2017-09-07T05:10:45.256Z,20
2017-09-07T05:11:25.834Z,20
2017-09-07T05:12:06.442Z,30
2017-09-07T05:12:47.019Z,30
2017-09-07T05:13:27.577Z,25
2017-09-07T05:14:08.171Z,25
2017-09-07T05:14:48.758Z,25
2017-09-07T05:15:29.339Z,35
2017-09-07T05:16:09.942Z,40
2017-09-07T05:16:50.509Z,30
2017-09-07T05:17:31.090Z,35
2017-09-07T05:18:11.666Z,30
2017-09-07T05:18:52.248Z,30
2017-09-07T05:19:32.826Z,35
2017-09-07T05:20:13.390Z,35
2017-09-07T05:20:53.952Z,40
2017-09-07T05:21:34.515Z,40
2017-09-07T05:22:15.092Z,40
2017-09-07T05:22:55.669Z,30
2017-09-07T05:23:36.225Z,25
2017-09-07T05:24:16.799Z,25
2017-09-07T05:24:57.375Z,25
2017-09-07T05:25:37.939Z,35
2017-09-07T05:26:18.520Z,50
2017-09-07T05:26:59.120Z,50
2017-09-07T05:27:39.673Z,50
2017-09-07T05:28:20.909Z,55
2017-09-07T05:29:01.682Z,50
2017-09-07T05:29:42.247Z,40
2017-09-07T05:30:22.825Z,25
2017-09-07T05:31:03.417Z,25
2017-09-07T05:31:44.559Z,30
2017-09-07T05:32:25.132Z,30
2017-09-07T05:33:05.700Z,30
2017-09-07T05:33:46.267Z,35
2017-09-07T05:34:26.838Z,45
2017-09-07T05:35:07.441Z,45
2017-09-07T05:35:48.018Z,50
2017-09-07T05:36:28.607Z,60
2017-09-07T05:37:09.458Z,65
2017-09-07T05:37:50.018Z,70
2017-09-07T05:38:30.712Z,55
2017-09-07T05:39:11.324Z,40
2017-09-07T05:39:51.907Z,25
2017-09-07T05:40:32.471Z,25
2017-09-07T05:41:13.041Z,40
2017-09-07T05:41:53.632Z,65
2017-09-07T05:42:34.374Z,80
2017-09-07T05:43:14.936Z,85
2017-09-07T05:43:55.519Z,90
2017-09-07T05:44:36.148Z,70
2017-09-07T05:45:16.681Z,55
2017-09-07T05:45:57.535Z,40
2017-09-07T05:46:38.097Z,50
2017-09-07T05:47:18.677Z,60
2017-09-07T05:47:59.245Z,60
2017-09-07T05:48:39.815Z,50
2017-09-07T05:49:20.379Z,50
2017-09-07T05:50:00.942Z,45
2017-09-07T05:50:41.684Z,35
2017-09-07T05:51:22.290Z,35
2017-09-07T05:52:02.849Z,45
2017-09-07T05:52:43.421Z,45
2017-09-07T05:53:24.000Z,35
2017-09-07T05:54:04.570Z,30
2017-09-07T05:54:45.136Z,30
2017-09-07T05:55:25.700Z,25
2017-09-07T05:56:06.263Z,25
2017-09-07T05:56:46.828Z,25
2017-09-07T05:57:27.442Z,25
2017-09-07T05:58:08.050Z,20
2017-09-07T05:58:49.241Z,20
2017-09-07T05:59:29.823Z,20
2017-09-07T06:00:10.503Z,20
2017-09-07T06:00:51.070Z,20
2017-09-07T06:01:31.635Z,20
2017-09-07T06:02:12.240Z,15
2017-09-07T06:02:52.840Z,15
2017-09-07T06:03:33.409Z,15
2017-09-07T06:04:13.983Z,10
2017-09-07T06:04:54.589Z,10
2017-09-07T06:05:35.220Z,10
2017-09-07T06:06:15.810Z,10
2017-09-07T06:06:56.411Z,10
2017-09-07T06:07:36.987Z,10
2017-09-07T06:08:17.552Z,15
2017-09-07T06:08:58.104Z,20
2017-09-07T06:09:38.684Z,20
2017-09-07T06:10:19.313Z,20
2017-09-07T06:10:59.960Z,20
2017-09-07T06:11:40.496Z,25
2017-09-07T06:12:21.062Z,20
2017-09-07T06:13:01.643Z,15
2017-09-07T06:13:42.229Z,15
2017-09-07T06:14:22.802Z,15
2017-09-07T06:15:03.370Z,15
2017-09-07T06:15:43.937Z,15
2017-09-07T06:16:24.512Z,20
2017-09-07T06:17:05.074Z,20
2017-09-07T06:17:45.638Z,20
2017-09-07T06:18:26.234Z,25
2017-09-07T06:19:06.796Z,30
2017-09-07T06:19:47.368Z,45
2017-09-07T06:20:27.937Z,60
2017-09-07T06:21:08.513Z,65
2017-09-07T06:21:49.077Z,65
2017-09-07T06:22:29.652Z,50
2017-09-07T06:23:10.224Z,45
2017-09-07T06:23:50.799Z,40
2017-09-07T06:24:31.388Z,40
2017-09-07T06:25:11.962Z,35
2017-09-07T06:25:52.564Z,50
2017-09-07T06:26:33.140Z,55
2017-09-07T06:27:13.765Z,65
2017-09-07T06:27:54.342Z,60
2017-09-07T06:28:34.907Z,50
2017-09-07T06:29:15.485Z,50
2017-09-07T06:29:56.071Z,60
2017-09-07T06:30:36.640Z,65
2017-09-07T06:31:17.200Z,835
2017-09-07T06:31:57.756Z,25
2017-09-07T06:32:38.330Z,25
2017-09-07T06:33:19.357Z,55
2017-09-07T06:33:59.993Z,75
2017-09-07T06:34:40.581Z,90
2017-09-07T06:35:21.160Z,90
2017-09-07T06:36:01.742Z,100
2017-09-07T06:36:42.313Z,845
2017-09-07T06:37:22.884Z,35
2017-09-07T06:38:03.463Z,40
2017-09-07T06:38:44.043Z,35
2017-09-07T06:39:24.626Z,40
2017-09-07T06:40:05.212Z,40
2017-09-07T06:40:45.781Z,40
2017-09-07T06:41:26.360Z,35
2017-09-07T06:42:06.917Z,30
2017-09-07T06:42:47.474Z,30
2017-09-07T06:43:28.050Z,30
2017-09-07T06:44:08.634Z,35
2017-09-07T06:44:49.207Z,40
2017-09-07T06:45:29.773Z,45
2017-09-07T06:46:10.391Z,40
2017-09-07T06:46:50.963Z,40
2017-09-07T06:47:31.545Z,40
2017-09-07T06:48:12.119Z,35
2017-09-07T06:48:52.693Z,40
2017-09-07T06:49:33.266Z,45
2017-09-07T06:50:13.838Z,50
2017-09-07T06:50:54.402Z,50
2017-09-07T06:51:34.984Z,45
2017-09-07T06:52:16.148Z,50
2017-09-07T06:52:56.714Z,55
2017-09-07T06:53:37.276Z,65
2017-09-07T06:54:17.840Z,105
2017-09-07T06:54:58.417Z,90
2017-09-07T06:55:38.979Z,65
2017-09-07T06:56:19.565Z,70
2017-09-07T06:57:00.129Z,110
2017-09-07T06:57:40.726Z,230
2017-09-07T06:58:21.306Z,930
2017-09-07T06:59:01.872Z,65
2017-09-07T06:59:42.454Z,70
2017-09-07T07:00:23.020Z,50
2017-09-07T07:01:03.588Z,40
2017-09-07T07:01:44.151Z,35
2017-09-07T07:02:24.722Z,35
2017-09-07T07:03:05.413Z,30
2017-09-07T07:03:45.988Z,35
2017-09-07T07:04:26.560Z,35
2017-09-07T07:05:07.111Z,40
2017-09-07T07:05:47.700Z,40
2017-09-07T07:06:28.290Z,40
2017-09-07T07:07:08.827Z,40
2017-09-07T07:07:49.403Z,40
2017-09-07T07:08:30.085Z,45
2017-09-07T07:09:10.651Z,55
2017-09-07T07:09:51.234Z,50
2017-09-07T07:10:31.876Z,55
2017-09-07T07:11:12.462Z,50
2017-09-07T07:11:53.102Z,50
2017-09-07T07:12:33.671Z,175
2017-09-07T07:13:14.280Z,90
2017-09-07T07:13:54.886Z,85
2017-09-07T07:14:35.455Z,80
2017-09-07T07:15:16.037Z,85
2017-09-07T07:15:56.605Z,85
2017-09-07T07:16:37.188Z,90
2017-09-07T07:17:17.781Z,150
2017-09-07T07:17:58.346Z,225
2017-09-07T07:18:38.964Z,195
2017-09-07T07:19:19.561Z,190
2017-09-07T07:20:00.135Z,305
2017-09-07T07:20:41.119Z,675
2017-09-07T07:21:21.693Z,1460
2017-09-07T07:22:02.274Z,1480
2017-09-07T07:22:42.857Z,635
2017-09-07T07:23:23.454Z,255
2017-09-07T07:24:04.029Z,180
2017-09-07T07:24:44.699Z,605
2017-09-07T07:25:25.391Z,495
2017-09-07T07:26:06.007Z,260
2017-09-07T07:26:46.571Z,680
2017-09-07T07:27:27.148Z,395
2017-09-07T07:28:07.713Z,285
2017-09-07T07:28:48.289Z,200
2017-09-07T07:29:28.863Z,265
2017-09-07T07:30:09.450Z,175
2017-09-07T07:30:50.019Z,155
2017-09-07T07:31:30.588Z,150
2017-09-07T07:32:11.188Z,155
2017-09-07T07:32:51.736Z,140
2017-09-07T07:33:32.314Z,120
2017-09-07T07:34:12.905Z,475
2017-09-07T07:34:53.706Z,365
2017-09-07T07:35:34.279Z,1025
2017-09-07T07:36:14.960Z,410
2017-09-07T07:36:55.653Z,360
2017-09-07T07:37:36.224Z,345
2017-09-07T07:38:16.845Z,1590
2017-09-07T07:38:57.379Z,390
2017-09-07T07:39:37.994Z,1535
2017-09-07T07:40:18.555Z,420
2017-09-07T07:40:59.163Z,1620
2017-09-07T07:41:39.744Z,1610
2017-09-07T07:42:20.317Z,1540
2017-09-07T07:43:00.982Z,1325
2017-09-07T07:43:41.556Z,655
2017-09-07T07:44:22.145Z,480
2017-09-07T07:45:02.715Z,690
2017-09-07T07:45:43.338Z,385
2017-09-07T07:46:23.921Z,415
2017-09-07T07:47:04.481Z,1670
2017-09-07T07:47:45.063Z,535
2017-09-07T07:48:25.657Z,330
2017-09-07T07:49:06.256Z,335
2017-09-07T07:49:46.825Z,285
2017-09-07T07:50:27.407Z,215
2017-09-07T07:51:07.980Z,245
2017-09-07T07:51:48.712Z,225
2017-09-07T07:52:29.291Z,315
2017-09-07T07:53:09.881Z,220
2017-09-07T07:53:50.468Z,220
2017-09-07T07:54:31.039Z,270
2017-09-07T07:55:11.598Z,325
2017-09-07T07:55:52.177Z,375
2017-09-07T07:56:32.871Z,415
2017-09-07T07:57:13.437Z,960
2017-09-07T07:57:54.051Z,1950
2017-09-07T07:58:34.659Z,2260
2017-09-07T07:59:15.253Z,870
2017-09-07T07:59:55.934Z,755
2017-09-07T08:00:36.519Z,335
2017-09-07T08:01:17.209Z,240
2017-09-07T08:01:58.789Z,255
2017-09-07T08:02:39.413Z,240
2017-09-07T08:03:19.975Z,220
2017-09-07T08:04:00.562Z,220
2017-09-07T08:04:41.132Z,225
2017-09-07T08:05:21.706Z,295
2017-09-07T08:06:02.281Z,225
2017-09-07T08:06:42.854Z,415
2017-09-07T08:07:23.508Z,285
2017-09-07T08:08:04.057Z,270
2017-09-07T08:08:44.644Z,225
2017-09-07T08:09:25.216Z,145
2017-09-07T08:10:05.851Z,110
2017-09-07T08:10:46.408Z,135
2017-09-07T08:11:26.971Z,285
2017-09-07T08:12:07.550Z,170
2017-09-07T08:12:48.112Z,145
2017-09-07T08:13:28.678Z,155
2017-09-07T08:14:09.256Z,190
2017-09-07T08:14:49.821Z,250
2017-09-07T08:15:30.399Z,280
2017-09-07T08:16:10.972Z,235
2017-09-07T08:16:51.536Z,215
2017-09-07T08:17:32.127Z,200
2017-09-07T08:18:12.692Z,160
2017-09-07T08:18:53.283Z,160
2017-09-07T08:19:33.845Z,165
2017-09-07T08:20:14.417Z,185
2017-09-07T08:20:54.988Z,210
2017-09-07T08:21:35.576Z,200
2017-09-07T08:22:16.147Z,190
2017-09-07T08:22:56.727Z,165
2017-09-07T08:23:37.305Z,175
2017-09-07T08:24:17.893Z,170
2017-09-07T08:24:58.481Z,165
2017-09-07T08:25:39.032Z,185
2017-09-07T08:26:19.608Z,225
2017-09-07T08:27:00.193Z,230
2017-09-07T08:27:40.761Z,220
2017-09-07T08:28:21.334Z,315
2017-09-07T08:29:01.919Z,330
2017-09-07T08:29:42.498Z,440
2017-09-07T08:30:23.078Z,310
2017-09-07T08:31:03.675Z,395
2017-09-07T08:31:44.211Z,270
2017-09-07T08:32:24.802Z,240
2017-09-07T08:33:05.381Z,375
2017-09-07T08:33:45.951Z,370
2017-09-07T08:34:26.522Z,360
2017-09-07T08:35:07.095Z,195
2017-09-07T08:35:47.656Z,205
2017-09-07T08:36:28.263Z,340
2017-09-07T08:37:08.830Z,280
2017-09-07T08:37:49.412Z,270
2017-09-07T08:38:29.993Z,195
2017-09-07T08:39:10.551Z,170
2017-09-07T08:39:51.125Z,170
2017-09-07T08:40:31.685Z,165
2017-09-07T08:41:12.258Z,170
2017-09-07T08:41:52.822Z,155
2017-09-07T08:42:33.415Z,180
2017-09-07T08:43:13.991Z,160
2017-09-07T08:43:54.570Z,150
2017-09-07T08:44:35.197Z,165
2017-09-07T08:45:15.778Z,200
2017-09-07T08:45:56.369Z,120
2017-09-07T08:46:36.956Z,95
2017-09-07T08:47:17.518Z,115
2017-09-07T08:47:58.091Z,130
2017-09-07T08:48:38.659Z,155
2017-09-07T08:49:19.231Z,170
2017-09-07T08:49:59.793Z,165
2017-09-07T08:50:40.372Z,155
2017-09-07T08:51:20.975Z,150
2017-09-07T08:52:01.538Z,215
2017-09-07T08:52:42.121Z,185
2017-09-07T08:53:22.729Z,185
2017-09-07T08:54:03.284Z,175
2017-09-07T08:54:43.857Z,170
2017-09-07T08:55:24.421Z,120
2017-09-07T08:56:04.985Z,135
2017-09-07T08:56:45.555Z,160
2017-09-07T08:57:26.131Z,145
2017-09-07T08:58:06.698Z,125
2017-09-07T08:58:47.270Z,130
2017-09-07T08:59:27.832Z,145
2017-09-07T09:00:08.396Z,135
2017-09-07T09:00:48.967Z,110
2017-09-07T09:01:29.583Z,90
2017-09-07T09:02:10.168Z,90
2017-09-07T09:02:50.768Z,90
2017-09-07T09:03:31.341Z,100
2017-09-07T09:04:11.916Z,100
2017-09-07T09:04:52.503Z,90
2017-09-07T09:05:33.084Z,100
2017-09-07T09:06:13.648Z,95
2017-09-07T09:06:54.214Z,100
2017-09-07T09:07:34.816Z,110
2017-09-07T09:08:15.426Z,120
2017-09-07T09:08:56.036Z,140
2017-09-07T09:09:36.609Z,180
2017-09-07T09:10:17.182Z,205
2017-09-07T09:10:57.754Z,195
2017-09-07T09:11:38.323Z,170
2017-09-07T09:12:18.890Z,155
2017-09-07T09:12:59.462Z,155
2017-09-07T09:13:40.030Z,165
2017-09-07T09:14:20.622Z,145
2017-09-07T09:15:01.194Z,130
2017-09-07T09:15:41.842Z,115
2017-09-07T09:16:22.397Z,105
2017-09-07T09:17:02.980Z,95
2017-09-07T09:17:43.545Z,110
2017-09-07T09:18:24.117Z,135
2017-09-07T09:19:04.694Z,190
2017-09-07T09:19:45.266Z,185
2017-09-07T09:20:25.836Z,145
2017-09-07T09:21:06.398Z,160
2017-09-07T09:21:46.989Z,145
2017-09-07T09:22:27.556Z,160
2017-09-07T09:23:08.141Z,195
2017-09-07T09:23:48.755Z,170
2017-09-07T09:24:29.321Z,140
2017-09-07T09:25:09.887Z,105
2017-09-07T09:25:50.474Z,95
2017-09-07T09:26:31.036Z,80
2017-09-07T09:27:11.606Z,70
2017-09-07T09:27:52.189Z,65
2017-09-07T09:28:32.760Z,65
2017-09-07T09:29:13.336Z,90
2017-09-07T09:29:53.904Z,110
2017-09-07T09:30:34.466Z,110
2017-09-07T09:31:15.032Z,110
2017-09-07T09:31:55.596Z,100
2017-09-07T09:32:36.165Z,105
2017-09-07T09:33:16.762Z,110
2017-09-07T09:33:57.326Z,135
2017-09-07T09:34:37.904Z,130
2017-09-07T09:35:18.481Z,120
2017-09-07T09:35:59.035Z,135
2017-09-07T09:36:39.612Z,150
2017-09-07T09:37:20.173Z,150
2017-09-07T09:38:00.750Z,140
2017-09-07T09:38:41.378Z,150
2017-09-07T09:39:21.942Z,135
2017-09-07T09:40:02.536Z,125
2017-09-07T09:40:43.122Z,140
2017-09-07T09:41:23.694Z,130
2017-09-07T09:42:04.263Z,145
2017-09-07T09:42:44.859Z,165
2017-09-07T09:43:25.427Z,155